createdAt,value
2018-07-25T00:00:40.728Z,10.15
2018-07-25T00:04:45.139Z,10.18
2018-07-25T00:08:49.253Z,10.05
2018-07-25T00:12:53.711Z,10.28
2018-07-25T00:16:58.043Z,9.73
2018-07-25T00:21:02.190Z,9.20
2018-07-25T00:25:06.450Z,9.35
2018-07-25T00:29:10.693Z,8.90
2018-07-25T00:33:15.040Z,9.58
2018-07-25T00:37:19.424Z,9.25
2018-07-25T00:41:23.657Z,9.38
2018-07-25T00:45:28.083Z,10.05
2018-07-25T00:49:32.563Z,9.48
2018-07-25T00:53:36.767Z,8.70
2018-07-25T00:57:43.168Z,8.65
2018-07-25T01:01:47.534Z,9.25
2018-07-25T01:05:51.690Z,8.58
2018-07-25T01:09:56.718Z,8.10
2018-07-25T01:14:00.803Z,8.30
2018-07-25T01:18:04.940Z,8.55
2018-07-25T01:22:08.864Z,8.28
2018-07-25T01:26:12.861Z,8.28
2018-07-25T01:30:16.872Z,8.38
2018-07-25T01:34:20.871Z,8.33
2018-07-25T01:38:24.934Z,8.33
2018-07-25T01:42:28.968Z,8.20
2018-07-25T01:46:33.080Z,7.87
2018-07-25T01:50:37.283Z,8.13
2018-07-25T01:54:41.436Z,8.00
2018-07-25T01:58:45.453Z,7.45
2018-07-25T02:02:49.321Z,7.53
2018-07-25T02:06:53.299Z,7.22
2018-07-25T02:10:57.169Z,7.08
2018-07-25T02:15:01.184Z,7.00
2018-07-25T02:19:05.207Z,6.60
2018-07-25T02:23:09.386Z,7.12
2018-07-25T02:27:13.325Z,7.20
2018-07-25T02:31:17.360Z,7.20
2018-07-25T02:35:21.423Z,6.60
2018-07-25T02:39:25.570Z,6.47
2018-07-25T02:43:29.569Z,6.78
2018-07-25T02:47:33.644Z,6.83
2018-07-25T02:51:37.790Z,6.87
2018-07-25T02:55:41.683Z,6.50
2018-07-25T02:59:46.678Z,6.60
2018-07-25T03:03:51.366Z,6.53
2018-07-25T03:07:55.419Z,7.22
2018-07-25T03:11:59.438Z,7.33
2018-07-25T03:16:04.974Z,7.42
2018-07-25T03:20:09.128Z,8.08
2018-07-25T03:24:13.125Z,8.18
2018-07-25T03:28:17.791Z,7.67
2018-07-25T03:32:21.906Z,8.15
2018-07-25T03:36:25.984Z,7.65
2018-07-25T03:40:30.768Z,8.03
2018-07-25T03:44:34.770Z,8.40
2018-07-25T03:48:38.724Z,8.47
2018-07-25T03:52:42.871Z,8.58
2018-07-25T03:56:47.578Z,8.40
2018-07-25T04:00:51.662Z,8.35
2018-07-25T04:04:55.778Z,7.92
2018-07-25T04:08:59.708Z,8.33
2018-07-25T04:13:03.828Z,8.25
2018-07-25T04:17:08.445Z,7.90
2018-07-25T04:21:12.510Z,7.67
2018-07-25T04:25:16.582Z,8.23
2018-07-25T04:29:20.697Z,8.08
2018-07-25T04:33:24.973Z,7.65
2018-07-25T04:37:29.716Z,8.43
2018-07-25T04:41:33.793Z,7.67
2018-07-25T04:45:38.072Z,7.90
2018-07-25T04:49:42.451Z,7.40
2018-07-25T04:53:46.625Z,6.83
2018-07-25T04:57:50.734Z,7.53
2018-07-25T05:01:55.755Z,7.30
2018-07-25T05:05:59.850Z,6.72
2018-07-25T05:10:04.737Z,7.00
2018-07-25T05:14:10.355Z,6.78
2018-07-25T05:18:14.471Z,6.50
2018-07-25T05:22:19.196Z,6.87
2018-07-25T05:26:23.390Z,6.85
2018-07-25T05:30:28.398Z,6.50
2018-07-25T05:34:33.288Z,6.92
2018-07-25T05:38:41.181Z,6.33
2018-07-25T05:42:47.747Z,6.03
2018-07-25T05:46:52.618Z,5.92
2018-07-25T05:50:57.120Z,6.20
2018-07-25T05:55:02.585Z,6.05
2018-07-25T05:59:08.183Z,5.20
2018-07-25T06:03:20.298Z,5.75
2018-07-25T06:07:29.978Z,5.70
2018-07-25T06:11:36.118Z,4.92
2018-07-25T06:24:57.149Z,5.03
2018-07-25T06:33:35.133Z,5.10
2018-07-25T06:37:47.945Z,4.75
2018-07-25T06:41:55.829Z,5.10
2018-07-25T06:46:02.621Z,5.17
2018-07-25T06:50:11.724Z,4.97
2018-07-25T06:54:18.218Z,4.58
2018-07-25T06:58:25.578Z,4.58
2018-07-25T07:02:42.564Z,4.90
2018-07-25T07:06:48.745Z,5.00
2018-07-25T07:21:25.817Z,4.87
2018-07-25T07:25:29.357Z,4.37
2018-07-25T07:29:32.782Z,4.50
2018-07-25T07:33:36.261Z,5.05
2018-07-25T07:37:39.730Z,5.00
2018-07-25T07:41:43.190Z,4.80
2018-07-25T07:45:46.693Z,4.67
2018-07-25T07:49:50.174Z,4.90
2018-07-25T07:53:53.655Z,4.83
2018-07-25T07:57:57.159Z,4.97
2018-07-25T08:02:00.903Z,5.37
2018-07-25T08:06:04.363Z,5.03
2018-07-25T08:10:07.855Z,3.95
2018-07-25T08:14:11.320Z,4.20
2018-07-25T08:18:14.816Z,4.83
2018-07-25T08:22:18.256Z,4.00
2018-07-25T08:26:21.748Z,4.20
2018-07-25T08:30:25.277Z,4.55
2018-07-25T08:34:28.817Z,4.25
2018-07-25T08:38:37.896Z,4.53
2018-07-25T08:42:41.437Z,4.47
2018-07-25T08:46:44.948Z,3.80
2018-07-25T08:50:48.629Z,3.70
2018-07-25T08:54:52.164Z,3.90
2018-07-25T08:58:55.677Z,3.60
2018-07-25T09:02:59.134Z,3.83
2018-07-25T09:07:02.830Z,4.03
2018-07-25T09:11:06.303Z,3.90
2018-07-25T09:15:09.900Z,4.25
2018-07-25T09:19:13.323Z,3.90
2018-07-25T09:23:17.810Z,4.00
2018-07-25T09:27:21.232Z,4.05
2018-07-25T09:31:24.866Z,4.40
2018-07-25T09:35:28.374Z,4.35
2018-07-25T09:39:31.977Z,4.08
2018-07-25T09:43:35.686Z,3.77
2018-07-25T09:47:39.199Z,3.75
2018-07-25T09:51:42.778Z,4.10
2018-07-25T09:55:46.334Z,3.90
2018-07-25T09:59:49.770Z,3.85
2018-07-25T10:03:53.243Z,3.85
2018-07-25T10:07:57.032Z,3.55
2018-07-25T10:12:00.731Z,4.20
2018-07-25T10:16:04.414Z,3.20
2018-07-25T10:20:08.094Z,2.72
2018-07-25T10:24:11.802Z,2.75
2018-07-25T10:28:15.499Z,3.08
2018-07-25T10:32:19.193Z,2.85
2018-07-25T10:36:22.878Z,2.62
2018-07-25T10:40:27.519Z,2.75
2018-07-25T10:44:31.303Z,2.90
2018-07-25T10:48:34.997Z,2.92
2018-07-25T10:52:38.687Z,2.95
2018-07-25T10:56:42.413Z,3.00
2018-07-25T11:00:45.903Z,2.70
2018-07-25T11:04:51.113Z,2.75
2018-07-25T11:08:55.041Z,2.90
2018-07-25T11:12:58.649Z,3.12
2018-07-25T11:17:02.133Z,3.15
2018-07-25T11:21:06.229Z,3.20
2018-07-25T11:25:10.236Z,2.65
2018-07-25T11:29:14.537Z,2.90
2018-07-25T11:33:18.214Z,3.02
2018-07-25T11:37:22.060Z,3.10
2018-07-25T11:41:25.913Z,3.02
2018-07-25T11:45:30.096Z,3.27
2018-07-25T11:49:34.235Z,3.25
2018-07-25T11:53:38.642Z,2.77
2018-07-25T11:57:42.239Z,2.80
2018-07-25T12:01:46.049Z,3.10
2018-07-25T12:05:49.647Z,2.83
2018-07-25T12:09:53.650Z,3.20
2018-07-25T12:13:57.379Z,2.87
2018-07-25T12:18:01.202Z,3.42
2018-07-25T12:26:56.111Z,3.30
2018-07-25T12:30:59.833Z,2.90
2018-07-25T12:35:03.612Z,2.87
2018-07-25T12:39:09.671Z,3.17
2018-07-25T12:43:13.633Z,3.42
2018-07-25T12:47:17.131Z,2.70
2018-07-25T12:51:20.848Z,3.22
2018-07-25T12:55:24.317Z,3.33
2018-07-25T12:59:28.041Z,2.80
2018-07-25T13:03:31.781Z,3.10
2018-07-25T13:07:35.570Z,3.20
2018-07-25T13:11:39.335Z,2.98
2018-07-25T13:15:43.283Z,3.02
2018-07-25T13:19:47.001Z,3.55
2018-07-25T13:23:50.460Z,3.10
2018-07-25T13:27:54.589Z,2.92
2018-07-25T13:31:58.648Z,3.10
2018-07-25T13:36:02.222Z,3.70
2018-07-25T13:40:06.536Z,3.20
2018-07-25T13:44:10.816Z,3.30
2018-07-25T13:48:14.552Z,2.92
2018-07-25T13:52:18.203Z,3.00
2018-07-25T13:56:21.994Z,3.12
2018-07-25T14:00:25.687Z,3.20
2018-07-25T14:04:29.309Z,3.08
2018-07-25T14:08:33.194Z,2.77
2018-07-25T14:12:36.860Z,3.00
2018-07-25T14:16:40.558Z,2.80
2018-07-25T14:20:44.685Z,2.90
2018-07-25T14:24:48.369Z,2.92
2018-07-25T14:28:52.142Z,3.10
2018-07-25T14:32:55.787Z,2.83
2018-07-25T14:36:59.446Z,2.90
2018-07-25T14:41:03.193Z,2.85
2018-07-25T14:45:07.146Z,2.90
2018-07-25T14:49:10.843Z,3.30
2018-07-25T14:53:14.557Z,2.98
2018-07-25T14:57:18.760Z,3.05
2018-07-25T15:01:22.562Z,3.00
2018-07-25T15:05:26.209Z,2.77
2018-07-25T15:20:35.512Z,3.15
2018-07-25T15:24:42.615Z,3.33
2018-07-25T15:33:36.117Z,3.20
2018-07-25T15:42:29.214Z,3.05
2018-07-25T15:51:16.182Z,2.72
2018-07-25T15:55:30.525Z,3.75
2018-07-25T15:59:39.397Z,2.85
2018-07-25T16:03:43.523Z,2.70
2018-07-25T18:22:11.077Z,2.75
2018-07-25T18:26:14.703Z,1.10
2018-07-25T18:30:18.202Z,1.25
2018-07-25T18:34:21.691Z,1.37
2018-07-25T18:38:25.169Z,1.30
2018-07-25T18:42:28.663Z,0.90
2018-07-25T18:46:32.355Z,1.42
2018-07-25T18:50:35.833Z,1.10
2018-07-25T18:54:39.310Z,1.10
2018-07-25T18:58:42.793Z,1.20
2018-07-25T19:02:46.239Z,1.10
2018-07-25T19:06:49.778Z,1.20
2018-07-25T19:10:53.239Z,1.32
2018-07-25T19:15:01.995Z,1.30
2018-07-25T19:19:05.443Z,1.20
2018-07-25T19:23:08.884Z,1.15
2018-07-25T19:27:12.336Z,1.20
2018-07-25T19:31:15.763Z,1.30
2018-07-25T19:35:19.258Z,1.50
2018-07-25T19:39:22.733Z,1.50
2018-07-25T19:43:26.204Z,1.10
2018-07-25T19:47:29.679Z,1.60
2018-07-25T19:51:33.187Z,1.40
2018-07-25T19:55:36.619Z,1.30
2018-07-25T19:59:40.197Z,1.35
2018-07-25T20:03:43.627Z,1.27
2018-07-25T20:07:47.069Z,1.30
2018-07-25T20:11:50.545Z,1.50
2018-07-25T20:15:57.318Z,1.45
2018-07-25T20:20:00.775Z,1.50
2018-07-25T20:24:04.270Z,1.60
2018-07-25T20:28:07.722Z,1.67
2018-07-25T20:32:11.327Z,2.02
2018-07-25T20:36:14.823Z,1.90
2018-07-25T20:40:18.298Z,2.00
2018-07-25T20:44:21.883Z,2.00
2018-07-25T20:48:25.415Z,2.00
2018-07-25T20:52:28.879Z,1.90
2018-07-25T20:56:32.338Z,1.90
2018-07-25T21:00:36.756Z,2.00
2018-07-25T21:04:40.160Z,2.00
2018-07-25T21:08:43.663Z,1.80
2018-07-25T21:12:47.088Z,1.80
2018-07-25T21:16:50.553Z,1.90
2018-07-25T21:20:54.003Z,1.55
2018-07-25T21:24:57.455Z,2.10
2018-07-25T21:29:00.922Z,1.80
2018-07-25T21:33:04.387Z,1.55
2018-07-25T21:37:07.837Z,1.65
2018-07-25T21:41:11.312Z,1.60
2018-07-25T21:45:14.770Z,1.40
2018-07-25T21:49:18.187Z,1.80
2018-07-25T21:53:22.674Z,1.55
2018-07-25T21:57:26.143Z,1.80
2018-07-25T22:01:29.582Z,1.70
2018-07-25T22:05:33.042Z,1.90
2018-07-25T22:09:36.471Z,1.57
2018-07-25T22:13:44.079Z,1.50
2018-07-25T22:17:47.524Z,1.90
2018-07-25T22:21:51.050Z,1.60
2018-07-25T22:25:54.524Z,2.00
2018-07-25T22:29:57.988Z,1.82
2018-07-25T22:34:01.410Z,1.98
2018-07-25T22:38:05.038Z,1.90
2018-07-25T22:42:08.502Z,2.40
2018-07-25T22:46:11.934Z,2.50
2018-07-25T22:50:15.362Z,2.10
2018-07-25T22:54:18.843Z,2.20
2018-07-25T22:58:22.309Z,2.10
2018-07-25T23:02:25.752Z,2.00
2018-07-25T23:06:29.290Z,2.20
2018-07-25T23:10:32.746Z,1.90
2018-07-25T23:14:36.325Z,2.30
2018-07-25T23:18:39.770Z,2.00
2018-07-25T23:22:55.090Z,1.87
2018-07-25T23:26:58.558Z,2.10
2018-07-25T23:31:02.067Z,1.98
2018-07-25T23:35:05.818Z,2.10
2018-07-25T23:39:10.437Z,2.35
2018-07-25T23:43:13.905Z,2.33
2018-07-25T23:47:17.358Z,2.40
2018-07-25T23:51:20.766Z,2.37
2018-07-25T23:55:24.226Z,2.55
2018-07-25T23:59:27.646Z,2.33
